Time;durP1;ratioP1;P1;durP2;ratioP2;P2;SDS_P1;SDS_P2;PMS_P1;PMS_P2;Temp;Humidity;BMP_temperature;BMP_pressure;BME280_temperature;BME280_humidity;BME280_pressure;Samples;Min_cycle;Max_cycle;Signal;HPM_P1;HPM_P2
2023/09/11 04:40:19;;;;;;;;;;;;;;;8.82;83.34;100661.21;108690;1274;22500;-42
2023/09/11 04:43:11;;;;;;;;;;;;;;;8.86;83.54;100661.09;109984;1278;22462;-41
2023/09/11 04:45:38;;;;;;;;;;;;;;;8.89;83.90;100656.44;109974;1278;22440;-42
2023/09/11 04:48:06;;;;;;;;;;;;;;;8.93;84.17;100653.87;109898;1278;23249;-42
2023/09/11 04:50:34;;;;;;;;;;;;;;;9.01;84.43;100652.92;108765;1275;22532;-41
2023/09/11 04:53:02;;;;;;;;;;;;;;;9.10;84.57;100651.13;107261;1278;22545;-40
2023/09/11 04:55:32;;;;;;;;;;;;;;;9.19;85.00;100650.20;107160;1278;23828;-41
2023/09/11 04:58:00;;;;;;;;;;;;;;;9.33;85.03;100652.23;107690;1278;25262;-41
2023/09/11 05:00:29;;;;;;;;;;;;;;;9.47;84.93;100650.30;108688;1272;22521;-45
2023/09/11 05:03:01;;;;;;;;;;;;;;;9.57;84.85;100647.28;109463;1278;22556;-41
2023/09/11 05:05:29;;;;;;;;;;;;;;;9.71;85.04;100645.83;109963;1271;22600;-47
2023/09/11 05:07:57;;;;;;;;;;;;;;;9.83;84.84;100642.98;107278;1278;22518;-49
2023/09/11 05:10:25;;;;;;;;;;;;;;;9.97;85.07;100645.02;108356;1278;23322;-47
2023/09/11 05:12:53;;;;;;;;;;;;;;;10.12;84.86;100645.13;109242;1277;23245;-45
2023/09/11 05:15:21;;;;;;;;;;;;;;;10.28;84.89;100644.04;109364;1277;23512;-41
2023/09/11 05:17:48;;;;;;;;;;;;;;;10.45;84.79;100639.63;109867;1262;22821;-42
2023/09/11 05:20:16;;;;;;;;;;;;;;;10.63;84.82;100639.38;109861;1278;22488;-42
2023/09/11 05:30:13;;;;;;;;;;;;;;;11.35;83.22;100629.35;106215;1312;545065;-41
2023/09/11 05:32:41;;;;;;;;;;;;;;;11.47;82.84;100624.48;109002;1282;22527;-42
2023/09/11 05:35:17;;;;;;;;;;;;;;;11.66;82.53;100624.15;108744;1285;22648;-47
2023/09/11 05:37:46;;;;;;;;;;;;;;;11.95;82.52;100625.75;108819;1286;24626;-44
2023/09/11 05:40:15;;;;;;;;;;;;;;;12.37;81.80;100623.96;108989;1273;22545;-41
2023/09/11 05:42:44;;;;;;;;;;;;;;;12.67;80.65;100627.55;108861;1276;146091;-42
2023/09/11 05:45:12;;;;;;;;;;;;;;;12.92;80.08;100623.79;109675;1276;22953;-41
2023/09/11 05:47:50;;;;;;;;;;;;;;;13.13;79.47;100622.46;109350;1281;25252;-41
2023/09/11 05:50:20;;;;;;;;;;;;;;;13.41;79.03;100623.02;109217;1277;22478;-47
2023/09/11 06:08:42;;;;;;;;;;;;;;;15.35;72.32;100613.14;109726;1279;22413;-42
2023/09/11 06:23:02;;;;;;;;;;;;;;;16.41;67.69;100620.88;109254;1276;22626;-46
2023/09/11 06:25:35;;;;;;;;;;;;;;;16.50;67.14;100617.38;109507;1279;22594;-46
2023/09/11 06:28:03;;;;;;;;;;;;;;;16.60;66.75;100613.50;109600;1277;22519;-46
2023/09/11 06:30:31;;;;;;;;;;;;;;;16.70;66.44;100610.84;109156;1259;22636;-42
2023/09/11 06:32:59;;;;;;;;;;;;;;;16.82;66.29;100611.85;109760;1281;22618;-42
2023/09/11 06:35:26;;;;;;;;;;;;;;;16.94;65.94;100608.24;109396;1273;23367;-47
2023/09/11 06:37:54;;;;;;;;;;;;;;;17.08;65.61;100609.18;109693;1273;22824;-45
2023/09/11 06:40:23;;;;;;;;;;;;;;;17.18;65.03;100613.53;108819;1274;22499;-42
2023/09/11 06:42:52;;;;;;;;;;;;;;;17.32;64.82;100611.48;109631;1273;23110;-48
2023/09/11 06:45:20;;;;;;;;;;;;;;;17.43;64.24;100608.20;108126;1276;23329;-47
2023/09/11 06:47:47;;;;;;;;;;;;;;;17.51;63.85;100610.50;109559;1273;23073;-42
2023/09/11 06:50:15;;;;;;;;;;;;;;;17.56;63.38;100608.59;109529;1277;22572;-42
2023/09/11 06:52:43;;;;;;;;;;;;;;;17.60;63.25;100610.63;109192;1272;23803;-42
2023/09/11 06:55:12;;;;;;;;;;;;;;;17.66;63.16;100609.60;109324;1273;23036;-41
2023/09/11 06:57:55;;;;;;;;;;;;;;;17.80;62.83;100611.59;109046;1273;23059;-47
2023/09/11 07:00:24;;;;;;;;;;;;;;;17.93;62.18;100609.84;109136;1272;23309;-47
2023/09/11 07:02:58;;;;;;;;;;;;;;;18.05;61.91;100607.23;109128;1273;22965;-41
2023/09/11 07:05:28;;;;;;;;;;;;;;;18.21;61.33;100605.24;109670;1273;23593;-48
2023/09/11 07:07:56;;;;;;;;;;;;;;;18.29;60.67;100601.14;109520;1276;22470;-47
2023/09/11 07:10:24;;;;;;;;;;;;;;;18.38;60.35;100597.02;109218;1278;22513;-47
2023/09/11 07:13:07;;;;;;;;;;;;;;;18.50;60.05;100600.73;108931;1272;22496;-42
2023/09/11 07:15:37;;;;;;;;;;;;;;;18.62;59.92;100596.54;109374;1279;22531;-41
2023/09/11 07:18:05;;;;;;;;;;;;;;;18.75;59.54;100599.55;109308;1273;22568;-46
2023/09/11 07:20:33;;;;;;;;;;;;;;;18.87;59.08;100596.36;109684;1270;22462;-42
2023/09/11 07:23:00;;;;;;;;;;;;;;;18.99;58.50;100597.95;109812;1273;22436;-41
2023/09/11 07:25:28;;;;;;;;;;;;;;;19.10;57.63;100594.80;108982;1279;22502;-46
2023/09/11 07:27:56;;;;;;;;;;;;;;;19.11;57.37;100591.92;109631;1270;22613;-43
2023/09/11 07:30:25;;;;;;;;;;;;;;;19.12;57.19;100593.31;109303;1275;22510;-45
2023/09/11 07:33:02;;;;;;;;;;;;;;;19.13;57.20;100597.71;108559;1280;22528;-47
2023/09/11 07:35:32;;;;;;;;;;;;;;;19.20;56.90;100597.15;108570;1275;22595;-42
2023/09/11 07:38:02;;;;;;;;;;;;;;;19.23;56.19;100593.31;109296;1273;25153;-41
2023/09/11 07:40:30;;;;;;;;;;;;;;;19.24;56.23;100592.41;109211;1270;22496;-42
2023/09/11 07:42:57;;;;;;;;;;;;;;;19.23;56.18;100590.34;109863;1260;23227;-41
2023/09/11 07:45:26;;;;;;;;;;;;;;;19.17;56.27;100591.20;109884;1270;23961;-42
2023/09/11 07:47:58;;;;;;;;;;;;;;;19.18;56.28;100588.17;109280;1270;23126;-47
2023/09/11 07:50:26;;;;;;;;;;;;;;;19.25;56.22;100585.51;109563;1270;22621;-46
2023/09/11 07:52:54;;;;;;;;;;;;;;;19.34;55.91;100583.28;109889;1273;23290;-41
2023/09/11 07:55:21;;;;;;;;;;;;;;;19.41;55.53;100580.92;109461;1275;22549;-41
2023/09/11 07:57:52;;;;;;;;;;;;;;;19.49;55.14;100576.78;109724;1270;22495;-47
2023/09/11 08:00:20;;;;;;;;;;;;;;;19.49;55.11;100579.79;109865;1271;22525;-42
2023/09/11 08:02:48;;;;;;;;;;;;;;;19.50;55.43;100576.73;109839;1259;22593;-42
2023/09/11 08:05:16;;;;;;;;;;;;;;;19.53;55.43;100576.29;109271;1269;22871;-47
2023/09/11 08:07:44;;;;;;;;;;;;;;;19.60;55.09;100578.38;109892;1270;22438;-47
2023/09/11 08:10:28;;;;;;;;;;;;;;;19.66;55.25;100575.00;109861;1273;23143;-47
2023/09/11 08:13:17;;;;;;;;;;;;;;;19.81;54.81;100575.39;109789;1270;22440;-42
2023/09/11 08:15:45;;;;;;;;;;;;;;;19.90;54.18;100569.23;109504;1270;23589;-47
2023/09/11 08:18:12;;;;;;;;;;;;;;;20.05;53.82;100571.73;109002;1270;24234;-42
2023/09/11 08:20:43;;;;;;;;;;;;;;;20.21;53.35;100567.80;109962;1270;22494;-42
2023/09/11 08:23:12;;;;;;;;;;;;;;;20.29;53.15;100569.11;109244;1272;23272;-47
2023/09/11 08:25:41;;;;;;;;;;;;;;;20.40;52.75;100560.23;110084;1270;22518;-42
2023/09/11 08:28:08;;;;;;;;;;;;;;;20.53;52.46;100559.44;108877;1267;22541;-44
2023/09/11 08:30:36;;;;;;;;;;;;;;;20.68;52.14;100555.48;109940;1270;22967;-43
2023/09/11 08:33:11;;;;;;;;;;;;;;;20.84;51.48;100552.95;109971;1269;23314;-43
2023/09/11 08:35:38;;;;;;;;;;;;;;;20.99;51.14;100551.99;110075;1270;22878;-42
2023/09/11 08:38:06;;;;;;;;;;;;;;;21.16;50.45;100552.41;109933;1276;22466;-45
2023/09/11 08:40:39;;;;;;;;;;;;;;;21.26;50.31;100550.39;109282;1273;22598;-42
2023/09/11 08:43:08;;;;;;;;;;;;;;;21.26;50.12;100549.13;109284;1272;22540;-42
2023/09/11 08:45:47;;;;;;;;;;;;;;;21.30;49.88;100545.83;109948;1270;22724;-43
2023/09/11 08:48:21;;;;;;;;;;;;;;;21.35;49.69;100543.52;110026;1270;23385;-42
2023/09/11 08:50:50;;;;;;;;;;;;;;;21.39;49.44;100542.13;109953;1272;22514;-43
2023/09/11 08:53:18;;;;;;;;;;;;;;;21.52;48.92;100540.88;110036;1269;22417;-41
2023/09/11 08:55:47;;;;;;;;;;;;;;;21.68;48.50;100533.47;109938;1271;22534;-41
2023/09/11 08:58:15;;;;;;;;;;;;;;;21.84;48.03;100527.98;110027;1270;22556;-42
2023/09/11 09:00:45;;;;;;;;;;;;;;;21.93;47.50;100528.86;110083;1270;22438;-41
2023/09/11 09:03:13;;;;;;;;;;;;;;;21.85;47.44;100528.98;109903;1272;22866;-41
2023/09/11 09:05:40;;;;;;;;;;;;;;;21.66;47.70;100530.84;110094;1269;22421;-41
2023/09/11 09:08:12;;;;;;;;;;;;;;;21.51;47.52;100525.31;110140;1276;22916;-41
2023/09/11 09:10:39;;;;;;;;;;;;;;;21.44;47.68;100521.85;110114;1270;22451;-41
2023/09/11 09:13:07;;;;;;;;;;;;;;;21.46;47.55;100516.29;110230;1270;22468;-45
2023/09/11 09:15:35;;;;;;;;;;;;;;;21.46;47.23;100510.23;110181;1272;22542;-42
2023/09/11 09:18:03;;;;;;;;;;;;;;;21.45;47.47;100504.77;109992;1272;23031;-43
2023/09/11 09:20:31;;;;;;;;;;;;;;;21.48;47.61;100505.70;110093;1270;23194;-42
2023/09/11 09:23:00;;;;;;;;;;;;;;;21.54;47.53;100504.42;109948;1275;22464;-41
2023/09/11 09:25:28;;;;;;;;;;;;;;;21.62;47.76;100501.40;110165;1269;22476;-41
2023/09/11 09:27:56;;;;;;;;;;;;;;;21.78;47.83;100502.31;110050;1261;22519;-42
2023/09/11 09:30:28;;;;;;;;;;;;;;;21.91;47.52;100493.58;109826;1270;22705;-46
2023/09/11 09:32:56;;;;;;;;;;;;;;;22.04;47.09;100490.90;109800;1269;22586;-46
2023/09/11 09:35:30;;;;;;;;;;;;;;;22.20;46.67;100488.45;109177;1270;22499;-48
2023/09/11 09:37:58;;;;;;;;;;;;;;;22.29;46.42;100485.52;109686;1270;22909;-46
2023/09/11 09:40:36;;;;;;;;;;;;;;;22.40;45.75;100482.55;109770;1262;23003;-48
2023/09/11 09:43:05;;;;;;;;;;;;;;;22.43;44.98;100479.37;108768;1272;22511;-47
2023/09/11 09:45:44;;;;;;;;;;;;;;;22.40;44.89;100477.02;109046;1272;26163;-46
2023/09/11 09:48:16;;;;;;;;;;;;;;;22.36;45.24;100478.63;109641;1273;22915;-41
2023/09/11 09:50:54;;;;;;;;;;;;;;;22.31;45.62;100481.88;109816;1272;22427;-47
2023/09/11 09:53:29;;;;;;;;;;;;;;;22.36;45.69;100475.80;109778;1269;22459;-47
2023/09/11 09:56:03;;;;;;;;;;;;;;;22.43;45.58;100474.06;109790;1276;23138;-46
2023/09/11 09:58:49;;;;;;;;;;;;;;;22.56;45.23;100468.66;109944;1270;22781;-41
2023/09/11 10:01:44;;;;;;;;;;;;;;;22.65;44.55;100468.77;109436;1270;23937;-40
2023/09/11 10:04:27;;;;;;;;;;;;;;;22.66;44.01;100467.62;109934;1270;22430;-46
2023/09/11 10:06:56;;;;;;;;;;;;;;;22.68;44.21;100468.24;110060;1272;23062;-48
2023/09/11 10:09:24;;;;;;;;;;;;;;;22.75;43.82;100465.08;109901;1272;22727;-47
2023/09/11 10:12:00;;;;;;;;;;;;;;;22.82;42.89;100461.02;109723;1269;23753;-46
2023/09/11 10:14:28;;;;;;;;;;;;;;;22.82;42.22;100457.62;109795;1270;22587;-47
2023/09/11 10:16:56;;;;;;;;;;;;;;;22.95;42.27;100456.13;109850;1270;22433;-47
2023/09/11 10:19:30;;;;;;;;;;;;;;;23.24;41.78;100454.71;109942;1272;22435;-53
2023/09/11 10:21:58;;;;;;;;;;;;;;;23.50;41.38;100452.71;109811;1256;22484;-41
2023/09/11 10:48:42;;;;;;;;;;;;;;;28.10;33.76;100414.63;110160;1270;22972;-51
2023/09/11 10:51:52;;;;;;;;;;;;;;;28.54;31.84;100414.66;109932;1271;23789;-52
2023/09/11 10:54:51;;;;;;;;;;;;;;;28.56;31.02;100412.00;109775;1269;22447;-52
2023/09/11 10:57:26;;;;;;;;;;;;;;;28.57;31.04;100414.45;109392;1270;25550;-51
2023/09/11 10:59:54;;;;;;;;;;;;;;;28.67;31.14;100410.14;109685;1269;23574;-51
2023/09/11 11:02:22;;;;;;;;;;;;;;;28.85;30.70;100408.76;109958;1276;22543;-51
2023/09/11 11:04:50;;;;;;;;;;;;;;;28.83;29.85;100407.30;110063;1274;22437;-44
2023/09/11 11:07:18;;;;;;;;;;;;;;;28.52;29.96;100400.60;109252;1275;22513;-44
2023/09/11 11:09:47;;;;;;;;;;;;;;;28.11;30.41;100395.72;109944;1262;23296;-44
2023/09/11 11:12:29;;;;;;;;;;;;;;;27.73;31.27;100391.05;109902;1270;22465;-49
2023/09/11 11:15:25;;;;;;;;;;;;;;;27.44;31.82;100390.13;109939;1269;22411;-49
2023/09/11 11:18:09;;;;;;;;;;;;;;;27.21;31.87;100386.88;109419;1269;23206;-50
2023/09/11 11:20:57;;;;;;;;;;;;;;;27.01;32.26;100385.48;109818;1270;22497;-50
2023/09/11 11:26:59;;;;;;;;;;;;;;;26.67;32.83;100375.98;109678;1269;22562;-49
2023/09/11 11:29:28;;;;;;;;;;;;;;;26.59;32.67;100372.38;109899;1270;23296;-50
2023/09/11 11:31:59;;;;;;;;;;;;;;;26.48;33.01;100368.11;109808;1273;22774;-50
2023/09/11 11:34:29;;;;;;;;;;;;;;;26.34;32.67;100367.33;110060;1270;22531;-49
2023/09/11 11:36:58;;;;;;;;;;;;;;;26.06;33.17;100366.80;110075;1270;23233;-50
2023/09/11 11:39:28;;;;;;;;;;;;;;;25.79;33.92;100362.07;108848;1258;22517;-49
2023/09/11 11:42:03;;;;;;;;;;;;;;;25.61;34.24;100361.39;109929;1270;22569;-42
2023/09/11 11:44:33;;;;;;;;;;;;;;;25.39;34.03;100357.73;110212;1270;22794;-50
2023/09/11 11:47:01;;;;;;;;;;;;;;;25.13;34.13;100356.04;109673;1272;23514;-49
2023/09/11 11:49:28;;;;;;;;;;;;;;;24.95;35.15;100357.48;110000;1268;22526;-43
2023/09/11 11:52:03;;;;;;;;;;;;;;;24.86;34.97;100356.56;110049;1272;22527;-43
2023/09/11 11:54:32;;;;;;;;;;;;;;;24.84;35.45;100354.58;110145;1269;22490;-49
2023/09/11 11:57:00;;;;;;;;;;;;;;;24.89;35.44;100351.58;110011;1274;22519;-49
2023/09/11 11:59:38;;;;;;;;;;;;;;;24.94;35.09;100350.02;110163;1276;22411;-49
2023/09/11 12:02:20;;;;;;;;;;;;;;;24.97;35.47;100350.97;110179;1275;23117;-50
2023/09/11 12:04:53;;;;;;;;;;;;;;;24.95;36.34;100351.58;108789;1273;22512;-43
2023/09/11 12:07:22;;;;;;;;;;;;;;;24.95;35.35;100348.52;110145;1267;22459;-41
2023/09/11 12:09:53;;;;;;;;;;;;;;;24.99;34.84;100346.02;109563;1272;22956;-50
2023/09/11 12:12:20;;;;;;;;;;;;;;;24.99;34.70;100347.41;110095;1272;22515;-48
2023/09/11 12:14:52;;;;;;;;;;;;;;;25.01;34.89;100344.97;110126;1276;23693;-42
2023/09/11 12:17:19;;;;;;;;;;;;;;;25.07;34.89;100339.83;110145;1257;23086;-42
2023/09/11 12:19:47;;;;;;;;;;;;;;;25.14;35.02;100337.48;110188;1270;22459;-42
2023/09/11 12:22:14;;;;;;;;;;;;;;;25.20;34.96;100334.92;110222;1275;22436;-42
2023/09/11 12:24:42;;;;;;;;;;;;;;;25.26;34.57;100334.10;110196;1270;23095;-42
2023/09/11 12:27:10;;;;;;;;;;;;;;;25.22;34.24;100336.84;110163;1275;23197;-42
2023/09/11 12:29:37;;;;;;;;;;;;;;;25.20;34.74;100334.93;110111;1276;23607;-42
2023/09/11 12:32:05;;;;;;;;;;;;;;;25.23;34.10;100335.88;110138;1276;22494;-50
2023/09/11 12:34:45;;;;;;;;;;;;;;;25.24;33.79;100334.37;110099;1276;22422;-52
2023/09/11 12:37:15;;;;;;;;;;;;;;;25.25;33.57;100331.86;110189;1276;22440;-49
2023/09/11 12:39:42;;;;;;;;;;;;;;;25.29;33.50;100331.94;110048;1272;22437;-50
2023/09/11 12:42:10;;;;;;;;;;;;;;;25.33;33.09;100330.27;110225;1276;22430;-42
2023/09/11 12:44:37;;;;;;;;;;;;;;;25.38;33.07;100328.20;109600;1266;24066;-51
2023/09/11 12:47:05;;;;;;;;;;;;;;;25.45;33.14;100325.42;109056;1276;22991;-42
2023/09/11 12:49:33;;;;;;;;;;;;;;;25.52;33.26;100321.25;108063;1272;22531;-51
2023/09/11 12:52:01;;;;;;;;;;;;;;;25.59;32.88;100322.77;109714;1273;24226;-43
2023/09/11 12:54:32;;;;;;;;;;;;;;;25.68;32.83;100316.33;108185;1276;22531;-43
2023/09/11 12:57:01;;;;;;;;;;;;;;;25.80;32.55;100314.16;109249;1274;23306;-44
2023/09/11 12:59:32;;;;;;;;;;;;;;;25.91;32.39;100312.41;110247;1269;22388;-44
2023/09/11 13:02:00;;;;;;;;;;;;;;;25.97;32.44;100313.95;110192;1272;22499;-43
2023/09/11 13:04:27;;;;;;;;;;;;;;;26.04;32.59;100311.96;110181;1276;22477;-50
2023/09/11 13:06:55;;;;;;;;;;;;;;;26.09;32.43;100311.81;110204;1276;23415;-43
2023/09/11 13:09:23;;;;;;;;;;;;;;;26.02;32.45;100306.69;109599;1269;22648;-43
2023/09/11 13:11:51;;;;;;;;;;;;;;;25.88;32.52;100300.41;110313;1269;22908;-44
2023/09/11 13:14:20;;;;;;;;;;;;;;;25.75;32.41;100304.80;110067;1276;22540;-44
2023/09/11 13:16:52;;;;;;;;;;;;;;;25.55;32.52;100301.06;109781;1272;22557;-43
2023/09/11 13:19:20;;;;;;;;;;;;;;;25.40;33.02;100298.26;109114;1276;22519;-50
2023/09/11 13:21:50;;;;;;;;;;;;;;;25.36;33.30;100301.89;109791;1273;23334;-52
2023/09/11 13:24:18;;;;;;;;;;;;;;;25.35;33.21;100300.50;110203;1276;22542;-52
2023/09/11 13:26:46;;;;;;;;;;;;;;;25.39;33.29;100293.61;110267;1276;22892;-51
2023/09/11 13:29:14;;;;;;;;;;;;;;;25.51;33.52;100291.45;109653;1276;22518;-42
2023/09/11 13:31:44;;;;;;;;;;;;;;;25.74;33.48;100289.71;110223;1275;22444;-43
2023/09/11 13:34:13;;;;;;;;;;;;;;;25.93;32.93;100289.55;109308;1276;24208;-44
2023/09/11 13:36:40;;;;;;;;;;;;;;;26.05;32.48;100285.20;110280;1276;22520;-42
2023/09/11 13:39:08;;;;;;;;;;;;;;;26.16;32.37;100283.42;109354;1276;26525;-43
2023/09/11 13:41:36;;;;;;;;;;;;;;;26.36;31.99;100281.41;109870;1276;22460;-43
2023/09/11 13:44:03;;;;;;;;;;;;;;;26.42;31.44;100278.89;109542;1276;22622;-42
2023/09/11 13:46:31;;;;;;;;;;;;;;;26.29;31.11;100277.06;108126;1276;22513;-43
2023/09/11 13:48:59;;;;;;;;;;;;;;;26.16;31.46;100277.71;108940;1276;22488;-43
2023/09/11 13:51:27;;;;;;;;;;;;;;;26.14;31.35;100279.64;109279;1276;22515;-45
2023/09/11 13:53:54;;;;;;;;;;;;;;;26.23;31.47;100280.28;110242;1276;22487;-44
2023/09/11 13:56:22;;;;;;;;;;;;;;;26.28;31.44;100275.38;109606;1276;22483;-50
2023/09/11 13:58:49;;;;;;;;;;;;;;;26.36;31.74;100273.73;110034;1266;25427;-42
2023/09/11 14:01:17;;;;;;;;;;;;;;;26.56;31.48;100272.64;110019;1276;23217;-43
2023/09/11 14:03:45;;;;;;;;;;;;;;;26.65;31.29;100273.96;110282;1259;22441;-42
2023/09/11 14:06:13;;;;;;;;;;;;;;;26.80;31.16;100271.36;109390;1276;23313;-43
2023/09/11 14:08:40;;;;;;;;;;;;;;;27.04;30.50;100272.07;109563;1276;23333;-43
2023/09/11 14:11:08;;;;;;;;;;;;;;;27.10;30.09;100271.35;107920;1276;22524;-42
2023/09/11 14:13:36;;;;;;;;;;;;;;;27.13;29.93;100266.06;108372;1276;25305;-43
2023/09/11 14:16:04;;;;;;;;;;;;;;;27.17;30.26;100269.54;107849;1276;22507;-43
2023/09/11 14:18:32;;;;;;;;;;;;;;;27.30;29.95;100269.16;110276;1276;22421;-52
2023/09/11 16:12:27;;;;;;;;;;;;;;;22.89;37.59;100259.57;107496;1278;22600;-48
2023/09/11 16:14:56;;;;;;;;;;;;;;;22.69;38.23;100258.65;107733;1278;22526;-49
2023/09/11 16:17:23;;;;;;;;;;;;;;;22.48;38.98;100258.98;106952;1278;26473;-46
2023/09/11 16:19:51;;;;;;;;;;;;;;;22.29;39.51;100262.92;106976;1280;25211;-43
2023/09/11 16:22:19;;;;;;;;;;;;;;;22.11;40.29;100263.61;106871;1278;22518;-44
2023/09/11 16:24:46;;;;;;;;;;;;;;;21.94;40.94;100266.89;107014;1278;23838;-44
2023/09/11 16:27:14;;;;;;;;;;;;;;;21.76;41.60;100271.98;107074;1262;24523;-49
2023/09/11 16:29:42;;;;;;;;;;;;;;;21.58;42.19;100273.88;106724;1270;22664;-44
2023/09/11 16:32:09;;;;;;;;;;;;;;;21.40;42.89;100275.25;106967;1278;22617;-48
2023/09/11 16:34:37;;;;;;;;;;;;;;;21.24;43.55;100269.19;106896;1262;22518;-44
2023/09/11 16:37:04;;;;;;;;;;;;;;;21.10;44.09;100276.02;107503;1279;22536;-45
